sensor_id;sensor_type;location;lat;lon;timestamp;pressure;altitude;pressure_sealevel;temperature;humidity
60258;BME280;46115;44.484;11.314;2024-03-08T00:02:56;100248.53;;;7.98;79.97
60258;BME280;46115;44.484;11.314;2024-03-08T00:07:00;100251.38;;;7.72;82.03
60258;BME280;46115;44.484;11.314;2024-03-08T00:11:04;100252.13;;;7.96;80.64
60258;BME280;46115;44.484;11.314;2024-03-08T00:15:07;100250.66;;;8.10;79.82
60258;BME280;46115;44.484;11.314;2024-03-08T00:19:09;100251.34;;;7.94;81.46
60258;BME280;46115;44.484;11.314;2024-03-08T00:23:12;100249.81;;;7.88;81.27
60258;BME280;46115;44.484;11.314;2024-03-08T00:27:18;100234.41;;;7.79;81.76
60258;BME280;46115;44.484;11.314;2024-03-08T00:31:22;100250.22;;;7.79;82.03
60258;BME280;46115;44.484;11.314;2024-03-08T00:35:24;100226.19;;;7.66;81.88
60258;BME280;46115;44.484;11.314;2024-03-08T00:39:27;100231.84;;;7.77;82.39
60258;BME280;46115;44.484;11.314;2024-03-08T00:43:30;100227.44;;;7.78;82.25
60258;BME280;46115;44.484;11.314;2024-03-08T00:47:33;100228.38;;;7.77;82.06
60258;BME280;46115;44.484;11.314;2024-03-08T00:51:35;100233.31;;;7.63;83.06
60258;BME280;46115;44.484;11.314;2024-03-08T00:55:38;100229.22;;;7.77;82.28
60258;BME280;46115;44.484;11.314;2024-03-08T00:59:42;100229.09;;;7.59;83.13
60258;BME280;46115;44.484;11.314;2024-03-08T01:03:44;100235.91;;;7.64;83.37
60258;BME280;46115;44.484;11.314;2024-03-08T01:07:47;100227.53;;;7.55;83.22
60258;BME280;46115;44.484;11.314;2024-03-08T01:11:50;100222.78;;;7.63;82.70
60258;BME280;46115;44.484;11.314;2024-03-08T01:15:56;100225.13;;;7.48;83.47
60258;BME280;46115;44.484;11.314;2024-03-08T01:19:59;100222.56;;;7.47;84.25
60258;BME280;46115;44.484;11.314;2024-03-08T01:24:02;100210.09;;;7.52;83.55
60258;BME280;46115;44.484;11.314;2024-03-08T01:28:05;100207.03;;;7.41;84.57
60258;BME280;46115;44.484;11.314;2024-03-08T01:32:09;100205.31;;;7.62;83.32
60258;BME280;46115;44.484;11.314;2024-03-08T01:36:11;100212.59;;;7.77;82.72
60258;BME280;46115;44.484;11.314;2024-03-08T01:40:16;100212.38;;;7.81;82.16
60258;BME280;46115;44.484;11.314;2024-03-08T01:44:19;100210.53;;;7.83;82.28
60258;BME280;46115;44.484;11.314;2024-03-08T01:48:23;100203.03;;;7.74;81.79
60258;BME280;46115;44.484;11.314;2024-03-08T01:52:26;100208.09;;;7.79;81.78
60258;BME280;46115;44.484;11.314;2024-03-08T01:56:28;100191.22;;;7.63;83.27
60258;BME280;46115;44.484;11.314;2024-03-08T02:00:33;100202.19;;;7.74;82.98
60258;BME280;46115;44.484;11.314;2024-03-08T02:04:39;100167.47;;;7.44;82.96
60258;BME280;46115;44.484;11.314;2024-03-08T02:08:42;100195.47;;;7.87;81.22
60258;BME280;46115;44.484;11.314;2024-03-08T02:12:46;100197.38;;;7.83;81.76
60258;BME280;46115;44.484;11.314;2024-03-08T02:16:49;100174.00;;;7.56;81.77
60258;BME280;46115;44.484;11.314;2024-03-08T02:20:54;100194.50;;;7.69;81.86
60258;BME280;46115;44.484;11.314;2024-03-08T02:24:57;100191.66;;;7.74;81.84
60258;BME280;46115;44.484;11.314;2024-03-08T02:29:02;100192.34;;;7.99;80.52
60258;BME280;46115;44.484;11.314;2024-03-08T02:33:05;100187.84;;;8.22;78.77
60258;BME280;46115;44.484;11.314;2024-03-08T02:37:09;100201.09;;;8.20;79.10
60258;BME280;46115;44.484;11.314;2024-03-08T02:41:12;100210.03;;;8.57;77.28
60258;BME280;46115;44.484;11.314;2024-03-08T02:45:14;100204.19;;;8.09;78.64
60258;BME280;46115;44.484;11.314;2024-03-08T02:49:17;100213.53;;;8.57;77.29
60258;BME280;46115;44.484;11.314;2024-03-08T02:53:21;100209.00;;;8.00;79.52
60258;BME280;46115;44.484;11.314;2024-03-08T02:57:25;100210.25;;;8.11;79.24
60258;BME280;46115;44.484;11.314;2024-03-08T03:01:28;100203.91;;;7.53;81.53
60258;BME280;46115;44.484;11.314;2024-03-08T03:05:31;100211.72;;;7.97;80.25
60258;BME280;46115;44.484;11.314;2024-03-08T03:09:34;100200.38;;;8.17;79.35
60258;BME280;46115;44.484;11.314;2024-03-08T03:13:37;100197.94;;;8.12;78.52
60258;BME280;46115;44.484;11.314;2024-03-08T03:17:40;100194.75;;;7.41;80.93
60258;BME280;46115;44.484;11.314;2024-03-08T03:21:42;100204.41;;;7.41;80.89
60258;BME280;46115;44.484;11.314;2024-03-08T03:25:46;100194.56;;;7.24;81.54
60258;BME280;46115;44.484;11.314;2024-03-08T03:29:49;100205.22;;;7.43;81.78
60258;BME280;46115;44.484;11.314;2024-03-08T03:33:53;100213.16;;;7.41;81.02
60258;BME280;46115;44.484;11.314;2024-03-08T03:37:55;100219.78;;;7.30;82.06
60258;BME280;46115;44.484;11.314;2024-03-08T03:42:09;100219.13;;;7.23;82.23
60258;BME280;46115;44.484;11.314;2024-03-08T03:46:11;100227.63;;;6.84;83.29
60258;BME280;46115;44.484;11.314;2024-03-08T03:50:14;100219.56;;;7.12;82.99
60258;BME280;46115;44.484;11.314;2024-03-08T03:54:16;100226.41;;;6.93;83.43
60258;BME280;46115;44.484;11.314;2024-03-08T03:58:20;100228.91;;;6.98;82.95
60258;BME280;46115;44.484;11.314;2024-03-08T04:02:23;100217.97;;;6.85;83.83
60258;BME280;46115;44.484;11.314;2024-03-08T04:06:27;100229.34;;;7.09;83.02
60258;BME280;46115;44.484;11.314;2024-03-08T04:10:30;100209.72;;;6.72;83.53
60258;BME280;46115;44.484;11.314;2024-03-08T04:14:34;100240.16;;;7.01;83.96
60258;BME280;46115;44.484;11.314;2024-03-08T04:18:36;100213.84;;;6.54;84.13
60258;BME280;46115;44.484;11.314;2024-03-08T04:22:39;100221.53;;;6.84;84.00
60258;BME280;46115;44.484;11.314;2024-03-08T04:26:41;100227.19;;;6.97;83.70
60258;BME280;46115;44.484;11.314;2024-03-08T04:30:46;100219.19;;;6.76;83.46
60258;BME280;46115;44.484;11.314;2024-03-08T04:34:48;100220.59;;;6.85;83.24
60258;BME280;46115;44.484;11.314;2024-03-08T04:38:51;100218.09;;;6.82;84.20
60258;BME280;46115;44.484;11.314;2024-03-08T04:42:54;100228.41;;;6.86;83.43
60258;BME280;46115;44.484;11.314;2024-03-08T04:46:58;100230.53;;;6.77;83.86
60258;BME280;46115;44.484;11.314;2024-03-08T04:51:01;100228.38;;;6.65;84.64
60258;BME280;46115;44.484;11.314;2024-03-08T04:55:06;100226.81;;;6.36;86.20
60258;BME280;46115;44.484;11.314;2024-03-08T04:59:08;100210.31;;;6.32;84.74
60258;BME280;46115;44.484;11.314;2024-03-08T05:03:12;100227.44;;;6.89;82.97
60258;BME280;46115;44.484;11.314;2024-03-08T05:07:15;100227.16;;;6.50;83.72
60258;BME280;46115;44.484;11.314;2024-03-08T05:11:17;100224.81;;;6.42;85.04
60258;BME280;46115;44.484;11.314;2024-03-08T05:15:20;100231.88;;;6.40;85.81
60258;BME280;46115;44.484;11.314;2024-03-08T05:19:24;100218.69;;;6.67;83.56
60258;BME280;46115;44.484;11.314;2024-03-08T05:23:26;100222.94;;;6.21;85.04
60258;BME280;46115;44.484;11.314;2024-03-08T05:27:29;100230.97;;;6.16;85.58
60258;BME280;46115;44.484;11.314;2024-03-08T05:31:31;100231.19;;;6.10;85.95
60258;BME280;46115;44.484;11.314;2024-03-08T05:35:39;100235.91;;;6.25;86.67
60258;BME280;46115;44.484;11.314;2024-03-08T05:39:42;100235.09;;;5.99;87.40
60258;BME280;46115;44.484;11.314;2024-03-08T05:43:46;100234.81;;;6.06;86.67
60258;BME280;46115;44.484;11.314;2024-03-08T05:47:48;100236.59;;;6.06;87.50
60258;BME280;46115;44.484;11.314;2024-03-08T05:51:54;100234.78;;;6.08;86.89
60258;BME280;46115;44.484;11.314;2024-03-08T05:55:56;100239.38;;;6.01;86.04
60258;BME280;46115;44.484;11.314;2024-03-08T05:59:59;100240.94;;;6.07;86.66
60258;BME280;46115;44.484;11.314;2024-03-08T06:04:02;100247.94;;;6.06;86.16
60258;BME280;46115;44.484;11.314;2024-03-08T06:08:06;100252.13;;;6.12;86.73
60258;BME280;46115;44.484;11.314;2024-03-08T06:12:09;100247.56;;;5.92;87.25
60258;BME280;46115;44.484;11.314;2024-03-08T06:16:12;100250.25;;;5.90;87.55
60258;BME280;46115;44.484;11.314;2024-03-08T06:20:14;100257.47;;;6.09;86.89
60258;BME280;46115;44.484;11.314;2024-03-08T06:24:18;100259.72;;;5.94;88.23
60258;BME280;46115;44.484;11.314;2024-03-08T06:28:20;100262.19;;;6.24;86.84
60258;BME280;46115;44.484;11.314;2024-03-08T06:32:22;100268.31;;;6.49;86.49
60258;BME280;46115;44.484;11.314;2024-03-08T06:36:25;100281.72;;;6.90;84.66
60258;BME280;46115;44.484;11.314;2024-03-08T06:40:29;100285.63;;;7.03;83.49
60258;BME280;46115;44.484;11.314;2024-03-08T06:44:31;100290.75;;;7.30;83.07
60258;BME280;46115;44.484;11.314;2024-03-08T06:48:34;100299.91;;;7.65;81.14
60258;BME280;46115;44.484;11.314;2024-03-08T06:52:38;100305.09;;;8.10;79.39
60258;BME280;46115;44.484;11.314;2024-03-08T06:56:42;100303.38;;;7.87;80.23
60258;BME280;46115;44.484;11.314;2024-03-08T07:00:45;100317.88;;;9.40;73.72
60258;BME280;46115;44.484;11.314;2024-03-08T07:04:47;100316.81;;;10.16;71.93
60258;BME280;46115;44.484;11.314;2024-03-08T07:08:51;100310.56;;;9.63;71.06
60258;BME280;46115;44.484;11.314;2024-03-08T07:12:55;100310.38;;;9.49;71.27
60258;BME280;46115;44.484;11.314;2024-03-08T07:16:57;100307.00;;;9.27;72.34
60258;BME280;46115;44.484;11.314;2024-03-08T07:21:00;100295.41;;;10.39;70.87
60258;BME280;46115;44.484;11.314;2024-03-08T07:25:05;100296.88;;;11.44;68.07
60258;BME280;46115;44.484;11.314;2024-03-08T07:29:22;100292.31;;;10.48;67.99
60258;BME280;46115;44.484;11.314;2024-03-08T07:33:24;100294.34;;;11.90;64.59
60258;BME280;46115;44.484;11.314;2024-03-08T07:37:28;100291.94;;;12.31;63.54
60258;BME280;46115;44.484;11.314;2024-03-08T07:41:30;100291.94;;;12.31;61.88
60258;BME280;46115;44.484;11.314;2024-03-08T07:45:36;100297.91;;;12.78;60.82
60258;BME280;46115;44.484;11.314;2024-03-08T07:49:38;100291.91;;;13.74;58.74
60258;BME280;46115;44.484;11.314;2024-03-08T07:53:41;100300.81;;;13.32;57.79
60258;BME280;46115;44.484;11.314;2024-03-08T07:57:44;100307.44;;;13.81;57.14
60258;BME280;46115;44.484;11.314;2024-03-08T08:01:50;100303.59;;;14.39;55.34
60258;BME280;46115;44.484;11.314;2024-03-08T08:05:52;100304.91;;;14.19;55.84
60258;BME280;46115;44.484;11.314;2024-03-08T08:09:54;100306.59;;;15.48;53.39
60258;BME280;46115;44.484;11.314;2024-03-08T08:13:57;100314.06;;;15.69;51.32
60258;BME280;46115;44.484;11.314;2024-03-08T08:18:02;100309.53;;;14.82;53.19
60258;BME280;46115;44.484;11.314;2024-03-08T08:22:06;100307.94;;;15.30;52.89
60258;BME280;46115;44.484;11.314;2024-03-08T08:26:10;100300.41;;;15.48;52.51
60258;BME280;46115;44.484;11.314;2024-03-08T08:30:13;100301.69;;;16.15;51.11
60258;BME280;46115;44.484;11.314;2024-03-08T08:34:17;100290.78;;;16.53;50.17
60258;BME280;46115;44.484;11.314;2024-03-08T08:38:20;100295.00;;;16.69;48.56
60258;BME280;46115;44.484;11.314;2024-03-08T08:42:22;100298.31;;;17.51;46.88
60258;BME280;46115;44.484;11.314;2024-03-08T08:46:25;100295.00;;;16.80;47.89
60258;BME280;46115;44.484;11.314;2024-03-08T08:50:29;100302.94;;;17.71;46.47
60258;BME280;46115;44.484;11.314;2024-03-08T08:54:32;100305.53;;;17.93;46.00
60258;BME280;46115;44.484;11.314;2024-03-08T08:58:34;100261.25;;;17.57;44.34
60258;BME280;46115;44.484;11.314;2024-03-08T09:02:37;100298.88;;;18.52;44.34
60258;BME280;46115;44.484;11.314;2024-03-08T09:06:41;100298.97;;;18.82;42.23
60258;BME280;46115;44.484;11.314;2024-03-08T09:10:43;100307.16;;;18.49;44.25
60258;BME280;46115;44.484;11.314;2024-03-08T09:14:46;100308.28;;;19.09;42.56
60258;BME280;46115;44.484;11.314;2024-03-08T09:18:49;100302.31;;;19.36;42.72
60258;BME280;46115;44.484;11.314;2024-03-08T09:22:53;100313.03;;;19.66;40.59
60258;BME280;46115;44.484;11.314;2024-03-08T09:26:56;100308.69;;;19.75;41.12
60258;BME280;46115;44.484;11.314;2024-03-08T09:30:59;100305.94;;;20.15;40.76
60258;BME280;46115;44.484;11.314;2024-03-08T09:35:02;100304.38;;;20.12;41.18
60258;BME280;46115;44.484;11.314;2024-03-08T09:39:09;100310.59;;;20.32;40.12
60258;BME280;46115;44.484;11.314;2024-03-08T09:43:17;100307.78;;;20.14;42.20
60258;BME280;46115;44.484;11.314;2024-03-08T09:47:22;100280.06;;;19.94;42.34
60258;BME280;46115;44.484;11.314;2024-03-08T09:51:28;100301.84;;;20.30;41.90
60258;BME280;46115;44.484;11.314;2024-03-08T09:55:34;100303.50;;;20.89;41.30
60258;BME280;46115;44.484;11.314;2024-03-08T09:59:37;100295.53;;;19.72;42.73
60258;BME280;46115;44.484;11.314;2024-03-08T10:03:49;100297.75;;;18.96;45.00
60258;BME280;46115;44.484;11.314;2024-03-08T10:07:51;100302.31;;;19.36;45.30
60258;BME280;46115;44.484;11.314;2024-03-08T10:11:55;100302.41;;;18.94;45.37
60258;BME280;46115;44.484;11.314;2024-03-08T10:16:00;100304.25;;;18.73;46.52
60258;BME280;46115;44.484;11.314;2024-03-08T10:20:02;100300.06;;;18.27;46.92
60258;BME280;46115;44.484;11.314;2024-03-08T10:24:15;100295.19;;;18.00;48.12
60258;BME280;46115;44.484;11.314;2024-03-08T10:28:22;100297.25;;;18.07;48.60
60258;BME280;46115;44.484;11.314;2024-03-08T10:32:25;100283.88;;;16.16;50.75
60258;BME280;46115;44.484;11.314;2024-03-08T10:36:28;100289.69;;;17.25;50.42
60258;BME280;46115;44.484;11.314;2024-03-08T10:40:31;100290.19;;;17.30;50.90
60258;BME280;46115;44.484;11.314;2024-03-08T10:44:57;100277.78;;;16.95;51.73
60258;BME280;46115;44.484;11.314;2024-03-08T10:49:06;100280.81;;;16.91;51.74
60258;BME280;46115;44.484;11.314;2024-03-08T10:53:10;100276.09;;;16.72;49.20
60258;BME280;46115;44.484;11.314;2024-03-08T10:57:14;100279.00;;;16.45;51.12
60258;BME280;46115;44.484;11.314;2024-03-08T11:01:20;100272.22;;;16.52;50.75
60258;BME280;46115;44.484;11.314;2024-03-08T11:05:36;100269.34;;;16.20;51.40
60258;BME280;46115;44.484;11.314;2024-03-08T11:09:40;100270.53;;;16.62;52.15
60258;BME280;46115;44.484;11.314;2024-03-08T11:13:44;100258.41;;;15.51;56.14
60258;BME280;46115;44.484;11.314;2024-03-08T11:17:49;100247.91;;;14.75;59.18
60258;BME280;46115;44.484;11.314;2024-03-08T11:21:58;100240.09;;;15.10;57.98
60258;BME280;46115;44.484;11.314;2024-03-08T11:26:01;100240.81;;;15.25;57.24
60258;BME280;46115;44.484;11.314;2024-03-08T11:30:09;100216.47;;;14.42;60.22
60258;BME280;46115;44.484;11.314;2024-03-08T11:34:16;100212.38;;;15.25;58.61
60258;BME280;46115;44.484;11.314;2024-03-08T11:38:20;100215.13;;;15.37;55.96
60258;BME280;46115;44.484;11.314;2024-03-08T11:42:22;100217.28;;;15.55;56.35
60258;BME280;46115;44.484;11.314;2024-03-08T11:46:25;100216.41;;;14.69;57.29
60258;BME280;46115;44.484;11.314;2024-03-08T11:50:30;100208.22;;;14.47;58.17
60258;BME280;46115;44.484;11.314;2024-03-08T11:54:34;100206.72;;;14.81;58.43
60258;BME280;46115;44.484;11.314;2024-03-08T11:58:37;100197.13;;;14.78;56.85
60258;BME280;46115;44.484;11.314;2024-03-08T12:02:40;100193.06;;;14.85;56.58
60258;BME280;46115;44.484;11.314;2024-03-08T12:06:45;100196.94;;;14.56;56.93
60258;BME280;46115;44.484;11.314;2024-03-08T12:10:48;100187.22;;;14.93;55.18
60258;BME280;46115;44.484;11.314;2024-03-08T12:14:51;100179.31;;;14.91;55.27
60258;BME280;46115;44.484;11.314;2024-03-08T12:18:53;100178.72;;;14.24;57.29
60258;BME280;46115;44.484;11.314;2024-03-08T12:22:58;100173.53;;;14.74;55.55
60258;BME280;46115;44.484;11.314;2024-03-08T12:27:17;100167.41;;;14.21;57.31
60258;BME280;46115;44.484;11.314;2024-03-08T12:31:20;100174.53;;;13.95;57.31
60258;BME280;46115;44.484;11.314;2024-03-08T12:35:25;100167.22;;;14.11;57.14
60258;BME280;46115;44.484;11.314;2024-03-08T12:39:29;100165.75;;;14.32;56.71
60258;BME280;46115;44.484;11.314;2024-03-08T12:43:32;100145.06;;;15.00;55.90
60258;BME280;46115;44.484;11.314;2024-03-08T12:47:35;100147.53;;;14.77;56.93
60258;BME280;46115;44.484;11.314;2024-03-08T12:51:37;100122.97;;;13.97;57.53
60258;BME280;46115;44.484;11.314;2024-03-08T12:55:41;100140.41;;;14.01;56.22
60258;BME280;46115;44.484;11.314;2024-03-08T12:59:44;100133.28;;;14.15;57.43
60258;BME280;46115;44.484;11.314;2024-03-08T13:03:46;100138.59;;;14.15;58.38
60258;BME280;46115;44.484;11.314;2024-03-08T13:07:50;100121.94;;;14.00;59.24
60258;BME280;46115;44.484;11.314;2024-03-08T13:11:55;100119.78;;;14.18;66.01
60258;BME280;46115;44.484;11.314;2024-03-08T13:15:59;100113.00;;;14.01;69.24
60258;BME280;46115;44.484;11.314;2024-03-08T13:20:02;100117.88;;;13.94;71.07
60258;BME280;46115;44.484;11.314;2024-03-08T13:24:06;100122.59;;;13.64;72.81
60258;BME280;46115;44.484;11.314;2024-03-08T13:28:10;100115.28;;;13.80;74.29
60258;BME280;46115;44.484;11.314;2024-03-08T13:32:13;100115.34;;;14.31;72.41
60258;BME280;46115;44.484;11.314;2024-03-08T13:36:15;100116.03;;;13.30;76.58
60258;BME280;46115;44.484;11.314;2024-03-08T13:40:18;100109.03;;;13.68;75.23
60258;BME280;46115;44.484;11.314;2024-03-08T13:44:22;100120.81;;;13.37;75.95
60258;BME280;46115;44.484;11.314;2024-03-08T13:48:26;100102.22;;;13.10;76.82
60258;BME280;46115;44.484;11.314;2024-03-08T13:52:29;100107.03;;;13.18;76.48
60258;BME280;46115;44.484;11.314;2024-03-08T13:56:31;100094.34;;;13.09;77.26
60258;BME280;46115;44.484;11.314;2024-03-08T14:00:35;100094.09;;;12.44;79.63
60258;BME280;46115;44.484;11.314;2024-03-08T14:04:37;100084.69;;;13.08;76.89
60258;BME280;46115;44.484;11.314;2024-03-08T14:08:40;100089.16;;;13.07;75.90
60258;BME280;46115;44.484;11.314;2024-03-08T14:12:43;100084.63;;;12.40;79.86
60258;BME280;46115;44.484;11.314;2024-03-08T14:16:47;100093.06;;;12.61;78.54
60258;BME280;46115;44.484;11.314;2024-03-08T14:20:49;100073.81;;;12.71;79.00
60258;BME280;46115;44.484;11.314;2024-03-08T14:24:52;100092.72;;;12.24;79.36
60258;BME280;46115;44.484;11.314;2024-03-08T14:28:56;100080.38;;;12.37;79.94
60258;BME280;46115;44.484;11.314;2024-03-08T14:33:00;100069.84;;;12.64;78.46
60258;BME280;46115;44.484;11.314;2024-03-08T14:37:03;100077.66;;;12.80;78.41
60258;BME280;46115;44.484;11.314;2024-03-08T14:41:09;100083.53;;;13.12;77.18
60258;BME280;46115;44.484;11.314;2024-03-08T14:45:12;100080.25;;;13.35;75.94
60258;BME280;46115;44.484;11.314;2024-03-08T14:49:16;100078.00;;;12.61;79.29
60258;BME280;46115;44.484;11.314;2024-03-08T14:53:19;100077.81;;;12.64;80.15
60258;BME280;46115;44.484;11.314;2024-03-08T14:57:22;100063.72;;;12.91;79.26
60258;BME280;46115;44.484;11.314;2024-03-08T15:01:25;100071.88;;;13.15;78.28
60258;BME280;46115;44.484;11.314;2024-03-08T15:05:32;100078.59;;;12.52;81.11
60258;BME280;46115;44.484;11.314;2024-03-08T15:09:37;100063.28;;;12.14;83.23
60258;BME280;46115;44.484;11.314;2024-03-08T15:13:41;100067.41;;;12.61;80.78
60258;BME280;46115;44.484;11.314;2024-03-08T15:17:46;100051.34;;;12.22;82.78
60258;BME280;46115;44.484;11.314;2024-03-08T15:21:49;100063.59;;;12.65;81.47
60258;BME280;46115;44.484;11.314;2024-03-08T15:25:56;100057.47;;;12.36;83.67
60258;BME280;46115;44.484;11.314;2024-03-08T15:29:58;100060.91;;;12.10;85.44
60258;BME280;46115;44.484;11.314;2024-03-08T15:34:01;100060.41;;;12.60;83.82
60258;BME280;46115;44.484;11.314;2024-03-08T15:38:09;100046.91;;;12.22;85.54
60258;BME280;46115;44.484;11.314;2024-03-08T15:42:11;100054.16;;;12.47;83.78
60258;BME280;46115;44.484;11.314;2024-03-08T15:46:14;100045.56;;;12.85;81.92
60258;BME280;46115;44.484;11.314;2024-03-08T15:50:16;100050.09;;;12.82;82.28
60258;BME280;46115;44.484;11.314;2024-03-08T15:54:20;100050.78;;;12.86;81.79
60258;BME280;46115;44.484;11.314;2024-03-08T15:58:23;100056.84;;;12.74;82.77
60258;BME280;46115;44.484;11.314;2024-03-08T16:02:25;100054.94;;;12.21;85.27
60258;BME280;46115;44.484;11.314;2024-03-08T16:06:29;100049.53;;;12.51;83.81
60258;BME280;46115;44.484;11.314;2024-03-08T16:10:33;100043.59;;;12.74;81.64
60258;BME280;46115;44.484;11.314;2024-03-08T16:14:36;100054.94;;;12.76;81.71
60258;BME280;46115;44.484;11.314;2024-03-08T16:18:40;100037.88;;;12.39;82.60
60258;BME280;46115;44.484;11.314;2024-03-08T16:22:43;100036.47;;;12.33;83.33
60258;BME280;46115;44.484;11.314;2024-03-08T16:26:47;100040.25;;;12.85;80.18
60258;BME280;46115;44.484;11.314;2024-03-08T16:30:50;100043.03;;;12.69;80.64
60258;BME280;46115;44.484;11.314;2024-03-08T16:34:55;100044.72;;;12.29;82.58
60258;BME280;46115;44.484;11.314;2024-03-08T16:38:57;100038.31;;;12.60;81.98
60258;BME280;46115;44.484;11.314;2024-03-08T16:43:01;100044.72;;;12.29;82.56
60258;BME280;46115;44.484;11.314;2024-03-08T16:47:04;100043.84;;;12.14;83.61
60258;BME280;46115;44.484;11.314;2024-03-08T16:51:07;100041.41;;;11.97;84.18
60258;BME280;46115;44.484;11.314;2024-03-08T16:55:11;100035.25;;;12.25;82.66
60258;BME280;46115;44.484;11.314;2024-03-08T16:59:18;100032.44;;;11.85;84.08
60258;BME280;46115;44.484;11.314;2024-03-08T17:03:20;100033.44;;;12.11;82.74
60258;BME280;46115;44.484;11.314;2024-03-08T17:07:23;100027.22;;;12.26;82.80
60258;BME280;46115;44.484;11.314;2024-03-08T17:11:25;100018.97;;;12.02;82.93
60258;BME280;46115;44.484;11.314;2024-03-08T17:15:30;100015.31;;;11.91;83.49
60258;BME280;46115;44.484;11.314;2024-03-08T17:19:35;100023.34;;;11.89;84.14
60258;BME280;46115;44.484;11.314;2024-03-08T17:23:38;100012.47;;;11.94;84.70
60258;BME280;46115;44.484;11.314;2024-03-08T17:27:42;100012.63;;;12.33;81.92
60258;BME280;46115;44.484;11.314;2024-03-08T17:31:51;100011.53;;;11.80;85.06
60258;BME280;46115;44.484;11.314;2024-03-08T17:35:54;100016.47;;;11.56;86.60
60258;BME280;46115;44.484;11.314;2024-03-08T17:39:57;100014.16;;;11.36;87.89
60258;BME280;46115;44.484;11.314;2024-03-08T17:43:59;100012.06;;;11.41;87.34
60258;BME280;46115;44.484;11.314;2024-03-08T23:06:08;99899.66;;;9.97;100.00
60258;BME280;46115;44.484;11.314;2024-03-08T23:10:13;99897.19;;;9.94;100.00
60258;BME280;46115;44.484;11.314;2024-03-08T23:14:16;99901.81;;;10.06;100.00
60258;BME280;46115;44.484;11.314;2024-03-08T23:18:18;99902.72;;;10.05;100.00
60258;BME280;46115;44.484;11.314;2024-03-08T23:22:22;99906.00;;;10.72;100.00
60258;BME280;46115;44.484;11.314;2024-03-08T23:26:25;99894.00;;;10.66;100.00
60258;BME280;46115;44.484;11.314;2024-03-08T23:30:28;99903.75;;;10.50;100.00
60258;BME280;46115;44.484;11.314;2024-03-08T23:34:31;99898.84;;;10.44;100.00
60258;BME280;46115;44.484;11.314;2024-03-08T23:38:35;99892.69;;;10.12;100.00
60258;BME280;46115;44.484;11.314;2024-03-08T23:42:38;99890.75;;;10.15;100.00
60258;BME280;46115;44.484;11.314;2024-03-08T23:46:41;99891.06;;;10.71;100.00
60258;BME280;46115;44.484;11.314;2024-03-08T23:50:46;99886.81;;;10.68;100.00
60258;BME280;46115;44.484;11.314;2024-03-08T23:54:50;99882.84;;;10.61;100.00
60258;BME280;46115;44.484;11.314;2024-03-08T23:58:52;99883.69;;;10.61;100.00
